createdAt,value
2017-05-20T00:00:42.217Z,8.36
2017-05-20T00:01:42.911Z,8.26
2017-05-20T00:02:43.808Z,8.20
2017-05-20T00:03:44.503Z,8.27
2017-05-20T00:04:45.202Z,8.23
2017-05-20T00:05:45.898Z,8.18
2017-05-20T00:06:46.591Z,8.26
2017-05-20T00:07:47.487Z,8.24
2017-05-20T00:08:48.182Z,8.27
2017-05-20T00:09:48.880Z,8.16
2017-05-20T00:10:49.574Z,8.24
2017-05-20T00:11:50.270Z,8.18
2017-05-20T00:12:51.167Z,8.18
2017-05-20T00:13:51.870Z,8.28
2017-05-20T00:14:52.564Z,8.19
2017-05-20T00:15:53.263Z,8.23
2017-05-20T00:16:53.956Z,8.26
2017-05-20T00:17:54.848Z,8.19
2017-05-20T00:18:55.545Z,8.23
2017-05-20T00:19:56.244Z,8.28
2017-05-20T00:20:56.941Z,8.08
2017-05-20T00:21:57.637Z,8.13
2017-05-20T00:22:58.535Z,8.26
2017-05-20T00:23:59.229Z,8.28
2017-05-20T00:24:59.924Z,8.09
2017-05-20T00:26:00.620Z,8.10
2017-05-20T00:27:01.319Z,8.09
2017-05-20T00:28:02.214Z,8.15
2017-05-20T00:29:02.912Z,8.13
2017-05-20T00:30:03.609Z,8.05
2017-05-20T00:31:04.304Z,8.10
2017-05-20T00:32:05.002Z,8.06
2017-05-20T00:33:05.899Z,8.03
2017-05-20T00:34:06.608Z,8.03
2017-05-20T00:35:07.303Z,8.01
2017-05-20T00:36:08.000Z,8.00
2017-05-20T00:37:08.699Z,8.08
2017-05-20T00:38:09.597Z,8.10
2017-05-20T00:39:10.296Z,8.08
2017-05-20T00:40:10.985Z,8.06
2017-05-20T00:41:11.682Z,8.08
2017-05-20T00:42:12.376Z,8.03
2017-05-20T00:43:13.273Z,8.01
2017-05-20T00:44:13.977Z,8.03
2017-05-20T00:45:14.670Z,8.00
2017-05-20T00:46:15.362Z,7.87
2017-05-20T00:47:16.060Z,7.88
2017-05-20T00:48:16.964Z,7.91
2017-05-20T00:49:17.663Z,7.91
2017-05-20T00:50:18.364Z,7.91
2017-05-20T00:51:19.057Z,7.88
2017-05-20T00:52:19.751Z,7.87
2017-05-20T00:53:20.646Z,7.93
2017-05-20T00:54:21.351Z,7.88
2017-05-20T00:55:22.046Z,7.91
2017-05-20T00:56:22.743Z,7.87
2017-05-20T00:57:23.436Z,7.87
2017-05-20T00:58:24.329Z,8.00
2017-05-20T00:59:25.026Z,7.94
2017-05-20T01:00:25.723Z,8.00
2017-05-20T01:01:26.416Z,7.93
2017-05-20T01:02:27.109Z,7.87
2017-05-20T01:03:28.003Z,7.87
2017-05-20T01:04:28.700Z,7.79
2017-05-20T01:05:29.405Z,7.82
2017-05-20T01:06:30.104Z,7.79
2017-05-20T01:07:30.800Z,7.80
2017-05-20T01:08:31.697Z,7.83
2017-05-20T01:09:32.392Z,7.82
2017-05-20T01:10:33.088Z,7.69
2017-05-20T01:11:33.783Z,7.70
2017-05-20T01:12:34.478Z,7.66
2017-05-20T01:13:35.381Z,7.69
2017-05-20T01:14:36.080Z,7.70
2017-05-20T01:15:36.775Z,7.66
2017-05-20T01:16:37.468Z,7.82
2017-05-20T01:17:38.164Z,7.67
2017-05-20T01:18:39.061Z,7.72
2017-05-20T01:19:39.764Z,7.67
2017-05-20T01:20:40.460Z,7.69
2017-05-20T01:21:41.153Z,7.76
2017-05-20T01:22:41.846Z,7.63
2017-05-20T01:23:42.746Z,7.72
2017-05-20T01:24:43.443Z,7.67
2017-05-20T01:25:44.142Z,7.70
2017-05-20T01:26:44.836Z,7.79
2017-05-20T01:27:45.534Z,7.60
2017-05-20T01:28:46.429Z,7.58
2017-05-20T01:29:47.125Z,7.63
2017-05-20T01:30:47.823Z,7.60
2017-05-20T01:31:48.516Z,7.54
2017-05-20T01:32:49.213Z,7.48
2017-05-20T01:33:50.109Z,7.61
2017-05-20T01:34:50.808Z,7.53
2017-05-20T01:35:51.499Z,7.66
2017-05-20T01:36:52.191Z,7.57
2017-05-20T01:37:52.894Z,7.54
2017-05-20T01:38:53.844Z,7.53
2017-05-20T01:39:54.599Z,7.45
2017-05-20T01:40:55.296Z,7.50
2017-05-20T01:41:55.988Z,7.45
2017-05-20T01:42:56.685Z,7.40
2017-05-20T01:43:57.581Z,7.42
2017-05-20T01:44:58.273Z,7.42
2017-05-20T01:45:58.966Z,7.51
2017-05-20T01:46:59.662Z,7.50
2017-05-20T01:48:00.361Z,7.47
2017-05-20T01:49:01.254Z,7.47
2017-05-20T01:50:01.948Z,7.53
2017-05-20T01:51:02.644Z,7.54
2017-05-20T01:52:03.338Z,7.56
2017-05-20T01:53:04.030Z,7.50
2017-05-20T01:54:04.923Z,7.58
2017-05-20T01:55:05.618Z,7.54
2017-05-20T01:56:06.315Z,7.47
2017-05-20T01:57:07.009Z,7.50
2017-05-20T01:58:07.705Z,7.53
2017-05-20T01:59:08.600Z,7.54
2017-05-20T02:00:09.302Z,7.56
2017-05-20T02:01:09.999Z,7.54
2017-05-20T02:02:10.696Z,7.47
2017-05-20T02:03:11.392Z,7.43
2017-05-20T02:04:12.291Z,7.39
2017-05-20T02:05:12.986Z,7.39
2017-05-20T02:06:13.679Z,7.40
2017-05-20T02:07:14.374Z,7.31
2017-05-20T02:08:15.070Z,7.36
2017-05-20T02:09:15.965Z,7.35
2017-05-20T02:10:16.665Z,7.23
2017-05-20T02:11:17.362Z,7.36
2017-05-20T02:12:18.055Z,7.25
2017-05-20T02:13:18.748Z,7.35
2017-05-20T02:14:19.648Z,7.32
2017-05-20T02:15:20.342Z,7.29
2017-05-20T02:16:21.041Z,7.28
2017-05-20T02:17:21.738Z,7.35
2017-05-20T02:18:22.431Z,7.33
2017-05-20T02:19:23.326Z,7.38
2017-05-20T02:20:24.018Z,7.21
2017-05-20T02:21:24.715Z,7.25
2017-05-20T02:22:25.414Z,7.33
2017-05-20T02:23:26.109Z,7.36
2017-05-20T02:24:27.000Z,7.28
2017-05-20T02:25:27.695Z,7.33
2017-05-20T02:26:28.389Z,7.25
2017-05-20T02:27:29.084Z,7.21
2017-05-20T02:28:29.777Z,7.24
2017-05-20T02:29:30.720Z,7.14
2017-05-20T02:30:31.417Z,7.20
2017-05-20T02:31:32.120Z,7.17
2017-05-20T02:32:32.819Z,7.15
2017-05-20T02:33:33.517Z,7.14
2017-05-20T02:34:34.417Z,7.14
2017-05-20T02:35:35.113Z,7.10
2017-05-20T02:36:35.808Z,7.17
2017-05-20T02:37:36.502Z,7.25
2017-05-20T02:38:37.202Z,7.21
2017-05-20T02:39:38.096Z,7.25
2017-05-20T02:40:38.796Z,7.06
2017-05-20T02:41:39.494Z,7.06
2017-05-20T02:42:40.189Z,7.15
2017-05-20T02:43:40.887Z,7.06
2017-05-20T02:44:41.583Z,7.07
2017-05-20T02:45:42.281Z,7.15
2017-05-20T02:46:42.989Z,6.97
2017-05-20T02:47:43.684Z,7.15
2017-05-20T02:48:44.381Z,7.07
2017-05-20T02:49:45.275Z,6.99
2017-05-20T02:50:45.968Z,7.00
2017-05-20T02:51:46.667Z,7.00
2017-05-20T02:52:47.357Z,7.00
2017-05-20T02:53:48.054Z,6.96
2017-05-20T02:54:48.951Z,6.97
2017-05-20T02:55:49.649Z,6.96
2017-05-20T02:56:50.349Z,6.95
2017-05-20T02:57:51.043Z,7.02
2017-05-20T02:58:51.740Z,7.02
2017-05-20T02:59:52.631Z,7.00
2017-05-20T03:00:53.327Z,7.05
2017-05-20T03:01:54.024Z,7.05
2017-05-20T03:02:54.726Z,7.11
2017-05-20T03:03:55.420Z,7.03
2017-05-20T03:04:56.315Z,6.99
2017-05-20T03:05:57.013Z,7.06
2017-05-20T03:06:57.708Z,6.96
2017-05-20T03:07:58.401Z,7.03
2017-05-20T03:08:59.096Z,7.02
2017-05-20T03:09:59.992Z,6.92
2017-05-20T03:11:00.693Z,6.96
2017-05-20T03:12:01.389Z,6.89
2017-05-20T03:13:02.082Z,6.95
2017-05-20T03:14:02.777Z,7.06
2017-05-20T03:15:03.668Z,7.06
2017-05-20T03:16:04.362Z,7.13
2017-05-20T03:17:05.056Z,7.15
2017-05-20T03:18:05.756Z,7.17
2017-05-20T03:19:06.453Z,7.21
2017-05-20T03:20:07.350Z,7.35
2017-05-20T03:21:08.047Z,7.33
2017-05-20T03:22:08.744Z,7.48
2017-05-20T03:23:09.442Z,7.33
2017-05-20T03:24:10.140Z,7.14
2017-05-20T03:25:11.038Z,7.29
2017-05-20T03:26:11.728Z,7.25
2017-05-20T03:27:12.425Z,7.11
2017-05-20T03:28:13.130Z,7.10
2017-05-20T03:29:13.834Z,7.24
2017-05-20T03:30:14.726Z,7.18
2017-05-20T03:31:15.428Z,7.31
2017-05-20T03:32:16.123Z,7.33
2017-05-20T03:33:16.826Z,7.36
2017-05-20T03:34:17.525Z,7.35
2017-05-20T03:35:18.424Z,7.33
2017-05-20T03:36:19.130Z,7.28
2017-05-20T03:37:19.830Z,7.35
2017-05-20T03:38:20.527Z,7.35
2017-05-20T03:39:21.224Z,7.40
2017-05-20T03:40:22.120Z,7.32
2017-05-20T03:41:22.818Z,7.38
2017-05-20T03:42:23.513Z,7.25
2017-05-20T03:43:24.207Z,7.33
2017-05-20T03:44:24.904Z,7.25
2017-05-20T03:45:25.802Z,7.24
2017-05-20T03:46:26.500Z,7.21
2017-05-20T03:47:27.198Z,7.21
2017-05-20T03:48:27.894Z,7.15
2017-05-20T03:49:28.595Z,7.25
2017-05-20T03:50:29.496Z,7.20
2017-05-20T03:51:30.194Z,7.21
2017-05-20T03:52:30.889Z,7.31
2017-05-20T03:53:31.592Z,7.32
2017-05-20T03:54:32.287Z,7.31
2017-05-20T03:55:33.184Z,7.43
2017-05-20T03:56:33.877Z,7.39
2017-05-20T03:57:34.575Z,7.45
2017-05-20T03:58:35.273Z,7.51
2017-05-20T03:59:35.970Z,7.45
2017-05-20T04:00:36.872Z,7.54
2017-05-20T04:01:37.570Z,7.57
2017-05-20T04:02:38.269Z,7.53
2017-05-20T04:03:38.965Z,7.48
2017-05-20T04:04:39.664Z,7.33
2017-05-20T04:05:40.563Z,7.45
2017-05-20T04:06:41.260Z,7.47
2017-05-20T04:07:41.958Z,7.57
2017-05-20T04:08:42.662Z,7.67
2017-05-20T04:09:43.363Z,7.69
2017-05-20T04:10:44.263Z,7.63
2017-05-20T04:11:44.958Z,7.67
2017-05-20T04:12:45.657Z,7.69
2017-05-20T04:13:46.360Z,7.67
2017-05-20T04:14:47.059Z,7.63
2017-05-20T04:15:47.956Z,7.63
2017-05-20T04:16:48.653Z,7.70
2017-05-20T04:17:49.349Z,7.77
2017-05-20T04:18:50.051Z,7.67
2017-05-20T04:19:50.749Z,7.72
2017-05-20T04:20:51.653Z,7.61
2017-05-20T04:21:52.349Z,7.75
2017-05-20T04:22:53.047Z,7.73
2017-05-20T04:23:53.750Z,7.73
2017-05-20T04:24:54.448Z,7.91
2017-05-20T04:25:55.346Z,7.95
2017-05-20T04:26:56.042Z,7.85
2017-05-20T04:27:56.749Z,8.00
2017-05-20T04:28:57.449Z,7.97
2017-05-20T04:29:58.148Z,7.97
2017-05-20T04:30:59.044Z,8.03
2017-05-20T04:31:59.741Z,8.09
2017-05-20T04:33:00.435Z,8.19
2017-05-20T04:34:01.136Z,8.20
2017-05-20T04:35:01.839Z,8.00
2017-05-20T04:36:02.739Z,8.01
2017-05-20T04:37:03.436Z,8.08
2017-05-20T04:38:04.133Z,7.97
2017-05-20T04:39:04.832Z,8.03
2017-05-20T04:40:05.527Z,8.12
2017-05-20T04:41:06.426Z,8.03
2017-05-20T04:42:07.124Z,8.15
2017-05-20T04:43:07.824Z,8.27
2017-05-20T04:44:08.528Z,8.34
2017-05-20T04:45:09.235Z,8.49
2017-05-20T04:46:10.133Z,8.49
2017-05-20T04:47:10.833Z,8.63
2017-05-20T04:48:11.532Z,8.53
2017-05-20T04:49:12.234Z,8.60
2017-05-20T04:50:12.937Z,8.60
2017-05-20T04:51:13.837Z,8.67
2017-05-20T04:52:14.536Z,8.73
2017-05-20T04:53:15.237Z,8.71
2017-05-20T04:54:15.943Z,8.69
2017-05-20T04:55:16.646Z,8.61
2017-05-20T04:56:17.347Z,8.61
2017-05-20T04:57:18.042Z,8.34
2017-05-20T04:58:18.740Z,8.33
2017-05-20T04:59:19.442Z,8.36
2017-05-20T05:00:20.151Z,8.38
2017-05-20T05:01:21.051Z,8.51
2017-05-20T05:02:21.752Z,8.38
2017-05-20T05:03:22.452Z,8.63
2017-05-20T05:04:23.154Z,8.73
2017-05-20T05:05:23.857Z,8.73
2017-05-20T05:06:24.755Z,8.60
2017-05-20T05:07:25.456Z,8.58
2017-05-20T05:08:26.155Z,8.60
2017-05-20T05:09:26.852Z,8.73
2017-05-20T05:10:27.553Z,8.69
2017-05-20T05:11:28.450Z,8.41
2017-05-20T05:12:29.147Z,8.42
2017-05-20T05:13:29.843Z,8.34
2017-05-20T05:14:30.544Z,8.51
2017-05-20T05:15:31.245Z,8.53
2017-05-20T05:16:32.147Z,8.64
2017-05-20T05:17:32.848Z,8.64
2017-05-20T05:18:33.546Z,8.56
2017-05-20T05:19:34.250Z,8.73
2017-05-20T05:20:34.951Z,8.92
2017-05-20T05:21:35.854Z,8.84
2017-05-20T05:22:36.557Z,8.87
2017-05-20T05:23:37.259Z,8.79
2017-05-20T05:24:37.959Z,8.79
2017-05-20T05:25:38.660Z,8.95
2017-05-20T05:26:39.559Z,8.89
2017-05-20T05:27:40.265Z,9.08
2017-05-20T05:28:40.967Z,9.18
2017-05-20T05:29:41.668Z,9.03
2017-05-20T05:30:42.372Z,9.18
2017-05-20T05:31:43.272Z,9.32
2017-05-20T05:32:43.974Z,9.08
2017-05-20T05:33:44.677Z,8.94
2017-05-20T05:34:45.377Z,9.02
2017-05-20T05:35:46.089Z,9.31
2017-05-20T05:36:46.998Z,9.51
2017-05-20T05:37:47.699Z,9.55
2017-05-20T05:38:48.401Z,9.86
2017-05-20T05:39:49.101Z,9.74
2017-05-20T05:40:49.799Z,9.99
2017-05-20T05:41:50.703Z,10.05
2017-05-20T05:42:51.408Z,10.17
2017-05-20T05:43:52.110Z,10.26
2017-05-20T05:44:52.809Z,10.40
2017-05-20T05:45:53.513Z,10.46
2017-05-20T05:46:54.419Z,10.40
2017-05-20T05:47:55.124Z,10.28
2017-05-20T05:48:55.827Z,10.37
2017-05-20T05:49:56.526Z,9.92
2017-05-20T05:50:57.225Z,9.80
2017-05-20T05:51:58.131Z,9.87
2017-05-20T05:52:58.834Z,10.02
2017-05-20T05:53:59.538Z,9.87
2017-05-20T05:55:00.238Z,9.82
2017-05-20T05:56:00.938Z,9.80
2017-05-20T05:57:01.844Z,10.01
2017-05-20T05:58:02.545Z,9.98
2017-05-20T05:59:03.246Z,10.04
2017-05-20T06:00:03.945Z,9.95
2017-05-20T06:01:04.656Z,9.83
2017-05-20T06:02:05.560Z,9.77
2017-05-20T06:03:06.261Z,9.61
2017-05-20T06:04:06.966Z,9.80
2017-05-20T06:05:07.676Z,9.77
2017-05-20T06:06:08.379Z,10.02
2017-05-20T06:07:09.288Z,10.04
2017-05-20T06:08:09.993Z,10.15
2017-05-20T06:09:10.694Z,10.35
2017-05-20T06:10:11.396Z,10.19
2017-05-20T06:11:12.096Z,10.15
2017-05-20T06:12:13.048Z,9.92
2017-05-20T06:13:13.748Z,9.91
2017-05-20T06:14:14.453Z,10.05
2017-05-20T06:15:15.205Z,10.17
2017-05-20T06:16:15.904Z,9.74
2017-05-20T06:17:16.863Z,10.02
2017-05-20T06:18:17.570Z,9.89
2017-05-20T06:19:18.279Z,9.98
2017-05-20T06:20:18.980Z,9.86
2017-05-20T06:21:19.684Z,10.04
2017-05-20T06:22:20.587Z,10.15
2017-05-20T06:23:21.288Z,9.98
2017-05-20T06:24:21.988Z,9.95
2017-05-20T06:25:22.689Z,9.98
2017-05-20T06:26:23.392Z,9.86
2017-05-20T06:27:24.297Z,9.95
2017-05-20T06:28:24.996Z,9.72
2017-05-20T06:29:25.698Z,10.05
2017-05-20T06:30:26.401Z,10.30
2017-05-20T06:31:27.103Z,10.64
2017-05-20T06:32:28.064Z,10.87
2017-05-20T06:33:28.764Z,10.82
2017-05-20T06:34:29.468Z,10.51
2017-05-20T06:35:30.179Z,10.61
2017-05-20T06:36:30.885Z,10.72
2017-05-20T06:37:31.793Z,10.84
2017-05-20T06:38:32.495Z,10.96
2017-05-20T06:39:33.197Z,11.02
2017-05-20T06:40:33.901Z,11.15
2017-05-20T06:41:34.646Z,11.15
2017-05-20T06:42:35.546Z,11.17
2017-05-20T06:43:36.245Z,11.19
2017-05-20T06:44:36.948Z,11.05
2017-05-20T06:45:37.650Z,11.17
2017-05-20T06:46:38.353Z,11.07
2017-05-20T06:47:39.306Z,11.05
2017-05-20T06:48:40.006Z,11.00
2017-05-20T06:49:40.712Z,10.86
2017-05-20T06:50:41.418Z,10.72
2017-05-20T06:51:42.122Z,10.42
2017-05-20T06:52:43.026Z,10.34
2017-05-20T06:53:43.727Z,10.40
2017-05-20T06:54:44.427Z,10.23
2017-05-20T06:55:45.129Z,10.40
2017-05-20T06:56:45.838Z,10.63
2017-05-20T06:57:46.745Z,10.64
2017-05-20T06:58:47.444Z,10.64
2017-05-20T06:59:48.146Z,10.63
2017-05-20T07:00:48.846Z,10.81
2017-05-20T07:01:49.547Z,10.94
2017-05-20T07:02:50.497Z,10.93
2017-05-20T07:03:51.212Z,10.79
2017-05-20T07:04:51.918Z,10.81
2017-05-20T07:05:52.625Z,10.79
2017-05-20T07:06:53.326Z,10.76
2017-05-20T07:07:54.029Z,10.86
2017-05-20T07:08:54.733Z,10.78
2017-05-20T07:09:55.446Z,10.75
2017-05-20T07:10:56.155Z,10.69
2017-05-20T07:11:56.856Z,10.61
2017-05-20T07:12:57.757Z,10.63
2017-05-20T07:13:58.471Z,10.48
2017-05-20T07:14:59.175Z,10.38
2017-05-20T07:15:59.884Z,10.48
2017-05-20T07:17:00.586Z,10.51
2017-05-20T07:18:01.489Z,10.51
2017-05-20T07:19:02.189Z,10.68
2017-05-20T07:20:02.889Z,10.76
2017-05-20T07:21:03.591Z,10.71
2017-05-20T07:22:04.296Z,10.79
2017-05-20T07:23:05.253Z,10.74
2017-05-20T07:24:05.959Z,10.60
2017-05-20T07:25:06.660Z,10.63
2017-05-20T07:26:07.362Z,10.71
2017-05-20T07:27:08.072Z,10.71
2017-05-20T07:28:09.025Z,10.72
2017-05-20T07:29:09.728Z,10.71
2017-05-20T07:30:10.429Z,10.72
2017-05-20T07:31:11.132Z,10.67
2017-05-20T07:32:11.844Z,10.78
2017-05-20T07:33:12.752Z,10.61
2017-05-20T07:34:13.468Z,10.64
2017-05-20T07:35:14.169Z,10.60
2017-05-20T07:36:14.870Z,10.72
2017-05-20T07:37:15.573Z,10.75
2017-05-20T07:38:16.477Z,10.72
2017-05-20T07:39:17.182Z,10.86
2017-05-20T07:40:17.888Z,10.89
2017-05-20T07:41:18.589Z,11.00
2017-05-20T07:42:19.291Z,11.17
2017-05-20T07:43:20.193Z,11.17
2017-05-20T07:44:20.903Z,11.07
2017-05-20T07:45:21.608Z,11.19
2017-05-20T07:46:22.311Z,11.15
2017-05-20T07:47:23.014Z,11.10
2017-05-20T07:48:23.924Z,11.19
2017-05-20T07:49:24.631Z,11.11
2017-05-20T07:50:25.336Z,11.14
2017-05-20T07:51:26.038Z,11.27
2017-05-20T07:52:26.743Z,11.30
2017-05-20T07:53:27.644Z,11.44
2017-05-20T07:54:28.347Z,11.47
2017-05-20T07:55:29.056Z,11.40
2017-05-20T07:56:29.765Z,11.51
2017-05-20T07:57:30.469Z,11.47
2017-05-20T07:58:31.370Z,11.62
2017-05-20T07:59:32.074Z,11.54
2017-05-20T08:00:32.776Z,11.60
2017-05-20T08:01:33.479Z,11.62
2017-05-20T08:02:34.182Z,11.59
2017-05-20T08:03:35.141Z,11.73
2017-05-20T08:04:35.845Z,11.83
2017-05-20T08:05:36.563Z,11.70
2017-05-20T08:06:37.262Z,11.86
2017-05-20T08:07:37.971Z,11.65
2017-05-20T08:08:38.878Z,11.69
2017-05-20T08:09:39.580Z,11.69
2017-05-20T08:10:40.285Z,11.75
2017-05-20T08:11:40.985Z,11.77
2017-05-20T08:12:41.686Z,11.87
2017-05-20T08:13:42.638Z,12.00
2017-05-20T08:14:43.343Z,11.95
2017-05-20T08:15:44.043Z,11.97
2017-05-20T08:16:44.743Z,11.90
2017-05-20T08:17:45.446Z,12.02
2017-05-20T08:18:46.404Z,11.88
2017-05-20T08:19:47.104Z,12.02
2017-05-20T08:20:47.812Z,12.02
2017-05-20T08:21:48.516Z,12.21
2017-05-20T08:22:49.219Z,12.12
2017-05-20T08:23:50.170Z,12.13
2017-05-20T08:24:50.868Z,12.24
2017-05-20T08:25:51.571Z,12.27
2017-05-20T08:26:52.271Z,12.35
2017-05-20T08:27:52.982Z,12.45
2017-05-20T08:28:53.885Z,12.39
2017-05-20T08:29:54.590Z,12.39
2017-05-20T08:30:55.292Z,12.60
2017-05-20T08:31:55.994Z,12.70
2017-05-20T08:32:56.699Z,12.78
2017-05-20T08:33:57.650Z,12.90
2017-05-20T08:34:58.351Z,12.90
2017-05-20T08:35:59.055Z,13.04
2017-05-20T08:36:59.755Z,13.15
2017-05-20T08:38:00.457Z,13.28
2017-05-20T08:39:01.409Z,13.30
2017-05-20T08:40:02.116Z,13.35
2017-05-20T08:41:02.818Z,13.46
2017-05-20T08:42:03.523Z,13.47
2017-05-20T08:43:04.229Z,13.60
2017-05-20T08:44:05.134Z,13.62
2017-05-20T08:45:05.850Z,13.59
2017-05-20T08:46:06.553Z,13.67
2017-05-20T08:47:07.259Z,13.70
2017-05-20T08:48:07.977Z,13.70
2017-05-20T08:49:08.943Z,13.77
2017-05-20T08:50:09.647Z,13.74
2017-05-20T08:51:10.352Z,13.74
2017-05-20T08:52:11.058Z,13.49
2017-05-20T08:53:11.761Z,13.70
2017-05-20T08:54:12.667Z,13.89
2017-05-20T08:55:13.376Z,13.95
2017-05-20T08:56:14.086Z,14.03
2017-05-20T08:57:14.789Z,14.04
2017-05-20T08:58:15.491Z,14.14
2017-05-20T08:59:16.443Z,14.08
2017-05-20T09:00:17.152Z,14.18
2017-05-20T09:01:17.855Z,14.18
2017-05-20T09:02:18.557Z,14.22
2017-05-20T09:03:19.261Z,14.20
2017-05-20T09:04:20.221Z,14.32
2017-05-20T09:05:20.932Z,14.41
2017-05-20T09:06:21.636Z,14.43
2017-05-20T09:07:22.340Z,14.60
2017-05-20T09:08:23.047Z,14.70
2017-05-20T09:09:23.953Z,14.65
2017-05-20T09:10:24.657Z,14.65
2017-05-20T09:11:25.362Z,15.07
2017-05-20T09:12:26.065Z,15.29
2017-05-20T09:13:26.766Z,15.46
2017-05-20T09:14:27.722Z,15.07
2017-05-20T09:15:28.432Z,15.00
2017-05-20T09:16:29.138Z,15.29
2017-05-20T09:17:29.845Z,15.58
2017-05-20T09:18:30.547Z,15.51
2017-05-20T09:19:31.500Z,15.75
2017-05-20T09:20:32.205Z,16.04
2017-05-20T09:21:32.912Z,16.28
2017-05-20T09:22:33.630Z,16.47
2017-05-20T09:23:34.341Z,16.57
2017-05-20T09:24:35.302Z,16.41
2017-05-20T09:25:36.014Z,16.56
2017-05-20T09:26:36.721Z,16.71
2017-05-20T09:27:37.426Z,16.75
2017-05-20T09:28:38.135Z,16.94
2017-05-20T09:29:39.100Z,17.12
2017-05-20T09:30:39.815Z,16.97
2017-05-20T09:31:40.519Z,17.12
2017-05-20T09:32:41.225Z,17.27
2017-05-20T09:33:41.934Z,17.19
2017-05-20T09:34:44.396Z,17.34
2017-05-20T09:35:45.107Z,17.29
2017-05-20T09:36:45.812Z,17.12
2017-05-20T09:37:46.520Z,17.11
2017-05-20T09:38:47.235Z,17.05
2017-05-20T09:39:48.145Z,16.97
2017-05-20T09:40:48.853Z,16.87
2017-05-20T09:41:49.558Z,17.34
2017-05-20T09:42:50.272Z,17.54
2017-05-20T09:43:50.980Z,17.65
2017-05-20T09:44:51.937Z,17.85
2017-05-20T09:45:52.646Z,17.65
2017-05-20T09:46:53.351Z,17.94
2017-05-20T09:47:54.055Z,17.90
2017-05-20T09:48:54.761Z,17.86
2017-05-20T09:49:55.716Z,17.76
2017-05-20T09:50:56.426Z,17.79
2017-05-20T09:51:57.133Z,17.78
2017-05-20T09:52:57.832Z,18.22
2017-05-20T09:53:58.536Z,18.13
2017-05-20T09:54:59.495Z,18.35
2017-05-20T09:56:00.211Z,18.74
2017-05-20T09:57:00.915Z,18.16
2017-05-20T09:58:01.622Z,19.04
2017-05-20T09:59:02.328Z,19.55
2017-05-20T10:00:03.293Z,19.66
2017-05-20T10:01:04.004Z,19.79
2017-05-20T10:02:04.719Z,19.89
2017-05-20T10:03:05.431Z,19.88
2017-05-20T10:04:06.139Z,19.67
2017-05-20T10:05:07.046Z,19.41
2017-05-20T10:06:07.753Z,19.24
2017-05-20T10:07:08.466Z,19.12
2017-05-20T10:08:09.170Z,19.39
2017-05-20T10:09:09.878Z,19.52
2017-05-20T10:10:10.786Z,19.55
2017-05-20T10:11:11.494Z,19.63
2017-05-20T10:12:12.197Z,19.00
2017-05-20T10:13:12.907Z,19.14
2017-05-20T10:14:13.614Z,19.16
2017-05-20T10:15:14.581Z,19.24
2017-05-20T10:16:15.295Z,19.34
2017-05-20T10:17:16.011Z,18.96
2017-05-20T10:18:16.720Z,18.80
2017-05-20T10:19:17.429Z,18.78
2017-05-20T10:20:18.391Z,18.65
2017-05-20T10:21:19.101Z,18.04
2017-05-20T10:22:19.807Z,17.85
2017-05-20T10:23:20.512Z,18.18
2017-05-20T10:24:21.226Z,17.87
2017-05-20T10:25:22.190Z,18.13
2017-05-20T10:26:22.893Z,18.47
2017-05-20T10:27:23.602Z,18.71
2017-05-20T10:28:24.309Z,18.66
2017-05-20T10:29:25.021Z,18.58
2017-05-20T10:30:25.978Z,18.60
2017-05-20T10:31:26.689Z,18.98
2017-05-20T10:32:27.398Z,18.73
2017-05-20T10:33:28.103Z,19.12
2017-05-20T10:34:28.806Z,19.40
2017-05-20T10:35:29.716Z,18.62
2017-05-20T10:36:30.422Z,18.37
2017-05-20T10:37:31.136Z,18.28
2017-05-20T10:38:31.842Z,18.33
2017-05-20T10:39:32.551Z,18.58
2017-05-20T10:40:33.510Z,19.11
2017-05-20T10:41:34.217Z,18.99
2017-05-20T10:42:34.924Z,19.51
2017-05-20T10:43:35.646Z,19.64
2017-05-20T10:44:36.351Z,18.98
2017-05-20T10:45:37.258Z,19.02
2017-05-20T10:46:37.966Z,18.99
2017-05-20T10:47:38.670Z,19.00
2017-05-20T10:48:39.383Z,19.55
2017-05-20T10:49:40.092Z,19.45
2017-05-20T10:50:40.995Z,18.99
2017-05-20T10:51:41.705Z,18.34
2017-05-20T10:52:42.419Z,18.77
2017-05-20T10:53:43.130Z,18.77
2017-05-20T10:54:43.842Z,18.86
2017-05-20T10:55:44.747Z,18.58
2017-05-20T10:56:45.466Z,18.43
2017-05-20T10:57:46.173Z,18.23
2017-05-20T10:58:46.880Z,18.22
2017-05-20T10:59:47.598Z,18.34
2017-05-20T11:00:48.555Z,18.78
2017-05-20T11:01:49.261Z,19.11
2017-05-20T11:02:49.974Z,18.83
2017-05-20T11:03:50.690Z,18.83
2017-05-20T11:04:51.398Z,19.29
2017-05-20T11:05:52.349Z,19.34
2017-05-20T11:06:53.187Z,19.44
2017-05-20T11:07:53.905Z,18.81
2017-05-20T11:08:54.619Z,18.66
2017-05-20T11:09:55.330Z,18.71
2017-05-20T11:10:56.290Z,18.56
2017-05-20T11:11:56.998Z,18.92
2017-05-20T11:12:57.707Z,19.49
2017-05-20T11:13:58.427Z,19.41
2017-05-20T11:14:59.138Z,19.71
2017-05-20T11:16:00.046Z,20.21
2017-05-20T11:17:00.751Z,20.63
2017-05-20T11:18:01.457Z,20.75
2017-05-20T11:19:02.166Z,20.62
2017-05-20T11:20:02.874Z,20.22
2017-05-20T11:21:03.831Z,20.63
2017-05-20T11:22:04.543Z,20.40
2017-05-20T11:23:05.254Z,19.95
2017-05-20T11:24:05.962Z,19.44
2017-05-20T11:25:06.669Z,20.14
2017-05-20T11:26:07.605Z,21.11
2017-05-20T11:27:08.320Z,20.63
2017-05-20T11:28:09.031Z,19.95
2017-05-20T11:29:09.740Z,19.39
2017-05-20T11:30:10.453Z,19.11
2017-05-20T11:31:11.164Z,19.11
2017-05-20T11:32:11.871Z,19.21
2017-05-20T11:33:12.576Z,19.55
2017-05-20T11:34:13.294Z,18.93
2017-05-20T11:35:14.004Z,18.63
2017-05-20T11:36:14.912Z,18.70
2017-05-20T11:37:15.618Z,18.99
2017-05-20T11:38:16.321Z,19.12
2017-05-20T11:39:17.027Z,19.34
2017-05-20T11:40:17.736Z,19.56
2017-05-20T11:41:18.747Z,20.02
2017-05-20T11:42:19.459Z,20.41
2017-05-20T11:43:20.174Z,20.18
2017-05-20T11:44:20.935Z,19.89
2017-05-20T11:45:21.645Z,19.24
2017-05-20T11:46:22.607Z,19.11
2017-05-20T11:47:23.318Z,19.18
2017-05-20T11:48:24.039Z,19.76
2017-05-20T11:49:24.746Z,20.14
2017-05-20T11:50:25.458Z,22.39
2017-05-20T11:51:26.414Z,26.31
2017-05-20T11:52:27.127Z,28.72
2017-05-20T11:53:27.844Z,27.49
2017-05-20T11:54:28.558Z,33.09
2017-05-20T11:55:29.267Z,38.04
2017-05-20T11:56:30.176Z,37.48
2017-05-20T11:57:30.891Z,36.65
2017-05-20T11:58:31.620Z,35.05
2017-05-20T11:59:32.336Z,33.23
2017-05-20T12:00:33.055Z,31.65
2017-05-20T12:01:34.015Z,27.70
2017-05-20T12:02:34.733Z,25.46
2017-05-20T12:03:35.455Z,25.93
2017-05-20T12:04:36.162Z,27.21
2017-05-20T12:05:36.868Z,26.90
2017-05-20T12:06:37.796Z,28.35
2017-05-20T12:07:38.506Z,28.47
2017-05-20T12:08:39.210Z,26.55
2017-05-20T12:09:39.919Z,25.55
2017-05-20T12:10:40.628Z,24.48
2017-05-20T12:11:41.592Z,22.96
2017-05-20T12:12:42.305Z,24.10
2017-05-20T12:13:43.034Z,31.56
2017-05-20T12:14:43.749Z,36.35
2017-05-20T12:15:44.459Z,36.33
2017-05-20T12:16:45.422Z,31.00
2017-05-20T12:17:46.143Z,29.07
2017-05-20T12:18:46.858Z,33.50
2017-05-20T12:19:47.571Z,31.25
2017-05-20T12:20:48.284Z,30.83
2017-05-20T12:21:49.245Z,29.47
2017-05-20T12:22:49.957Z,33.59
2017-05-20T12:23:50.667Z,35.58
2017-05-20T12:24:51.381Z,38.24
2017-05-20T12:25:52.092Z,38.58
2017-05-20T12:26:53.012Z,33.00
2017-05-20T12:27:53.725Z,28.44
2017-05-20T12:28:54.438Z,25.51
2017-05-20T12:29:55.157Z,27.15
2017-05-20T12:30:55.873Z,32.00
2017-05-20T12:31:56.786Z,35.34
2017-05-20T12:32:57.496Z,37.28
2017-05-20T12:33:58.210Z,37.82
2017-05-20T12:34:58.927Z,39.04
2017-05-20T12:35:59.641Z,38.33
2017-05-20T12:37:00.602Z,41.50
2017-05-20T12:38:01.313Z,40.65
2017-05-20T12:39:02.024Z,35.37
2017-05-20T12:40:02.740Z,30.59
2017-05-20T12:41:03.456Z,33.79
2017-05-20T12:42:04.428Z,30.59
2017-05-20T12:43:05.142Z,27.85
2017-05-20T12:44:05.855Z,25.46
2017-05-20T12:45:06.572Z,24.36
2017-05-20T12:46:07.305Z,23.77
2017-05-20T12:47:08.268Z,22.78
2017-05-20T12:48:08.981Z,22.73
2017-05-20T12:49:09.706Z,23.96
2017-05-20T12:50:10.428Z,23.95
2017-05-20T12:51:11.150Z,24.23
2017-05-20T12:52:11.866Z,24.02
2017-05-20T12:53:12.578Z,23.80
2017-05-20T12:54:13.290Z,23.83
2017-05-20T12:55:14.004Z,24.06
2017-05-20T12:56:14.722Z,25.23
2017-05-20T12:57:15.435Z,24.91
2017-05-20T12:58:16.398Z,28.33
2017-05-20T12:59:17.116Z,26.58
2017-05-20T13:00:17.831Z,25.06
2017-05-20T13:01:18.544Z,24.36
2017-05-20T13:02:19.258Z,23.54
2017-05-20T13:03:20.215Z,23.73
2017-05-20T13:04:20.935Z,22.17
2017-05-20T13:05:21.648Z,21.46
2017-05-20T13:06:22.380Z,21.45
2017-05-20T13:07:23.093Z,20.65
2017-05-20T13:08:24.060Z,20.41
2017-05-20T13:09:24.771Z,20.21
2017-05-20T13:10:25.490Z,20.36
2017-05-20T13:11:26.202Z,23.56
2017-05-20T13:12:26.939Z,23.59
2017-05-20T13:13:27.926Z,27.17
2017-05-20T13:14:28.636Z,25.41